createdAt,value
2023-05-13T00:04:55.437Z,12.90
2023-05-13T00:09:57.297Z,12.90
2023-05-13T00:14:59.093Z,12.80
2023-05-13T00:20:01.149Z,12.70
2023-05-13T00:25:02.958Z,12.60
2023-05-13T00:30:05.750Z,12.60
2023-05-13T00:35:07.846Z,12.50
2023-05-13T00:40:20.152Z,12.50
2023-05-13T00:45:22.233Z,12.40
2023-05-13T00:50:24.554Z,12.40
2023-05-13T00:55:26.811Z,12.30
2023-05-13T01:00:31.987Z,12.40
2023-05-13T01:06:00.918Z,12.50
2023-05-13T01:11:35.884Z,12.40
2023-05-13T01:16:50.763Z,12.40
2023-05-13T01:21:53.143Z,12.30
2023-05-13T01:26:54.935Z,12.30
2023-05-13T01:31:58.385Z,12.30
2023-05-13T01:37:00.987Z,12.10
2023-05-13T01:42:03.520Z,12.10
2023-05-13T01:47:05.564Z,12.00
2023-05-13T01:52:07.435Z,11.90
2023-05-13T01:57:09.208Z,11.90
2023-05-13T02:02:11.127Z,11.90
2023-05-13T02:07:12.996Z,11.80
2023-05-13T02:12:14.815Z,11.80
2023-05-13T02:17:16.659Z,11.80
2023-05-13T02:22:18.473Z,11.80
2023-05-13T02:27:20.895Z,11.70
2023-05-13T02:32:23.060Z,11.70
2023-05-13T02:37:24.980Z,11.80
2023-05-13T02:42:27.219Z,11.70
2023-05-13T02:47:29.010Z,11.70
2023-05-13T02:52:30.964Z,11.70
2023-05-13T02:57:33.058Z,11.60
2023-05-13T03:02:36.351Z,11.40
2023-05-13T03:07:38.227Z,11.40
2023-05-13T03:12:40.182Z,11.40
2023-05-13T03:17:42.205Z,11.30
2023-05-13T03:22:44.100Z,11.30
2023-05-13T03:27:46.071Z,11.20
2023-05-13T03:32:48.009Z,11.20
2023-05-13T03:37:49.875Z,11.00
2023-05-13T03:42:51.937Z,11.10
2023-05-13T03:47:53.873Z,10.90
2023-05-13T03:52:56.886Z,11.00
2023-05-13T03:57:58.803Z,10.80
2023-05-13T04:03:00.697Z,10.80
2023-05-13T04:08:02.546Z,10.80
2023-05-13T04:13:04.355Z,10.80
2023-05-13T04:18:06.586Z,10.70
2023-05-13T04:23:08.465Z,10.70
2023-05-13T04:28:10.278Z,10.70
2023-05-13T04:33:12.131Z,10.80
2023-05-13T04:38:14.334Z,10.80
2023-05-13T04:43:16.519Z,10.70
2023-05-13T04:48:18.277Z,10.70
2023-05-13T04:53:20.138Z,10.70
2023-05-13T04:58:21.878Z,10.90
2023-05-13T05:03:24.632Z,11.00
2023-05-13T05:08:28.727Z,11.00
2023-05-13T05:13:30.475Z,11.20
2023-05-13T05:18:32.343Z,11.20
2023-05-13T05:23:34.135Z,11.40
2023-05-13T05:28:36.818Z,11.60
2023-05-13T05:33:39.260Z,11.70
2023-05-13T05:38:42.069Z,12.00
2023-05-13T05:43:43.824Z,12.10
2023-05-13T05:48:45.630Z,12.30
2023-05-13T05:53:47.408Z,12.50
2023-05-13T05:58:49.162Z,12.70
2023-05-13T06:03:53.154Z,12.80
2023-05-13T06:08:56.750Z,12.90
2023-05-13T06:13:58.561Z,13.00
2023-05-13T06:19:00.534Z,13.20
2023-05-13T06:24:03.248Z,13.20
2023-05-13T06:29:05.054Z,13.30
2023-05-13T06:34:06.843Z,13.40
2023-05-13T06:39:08.612Z,13.40
2023-05-13T06:44:10.410Z,13.70
2023-05-13T06:49:12.207Z,13.70
2023-05-13T06:54:14.333Z,13.80
2023-05-13T06:59:16.510Z,13.90
2023-05-13T07:04:18.392Z,14.00
2023-05-13T07:09:20.323Z,14.30
2023-05-13T07:14:22.096Z,14.40
2023-05-13T07:19:24.031Z,14.60
2023-05-13T07:24:26.005Z,14.70
2023-05-13T07:29:27.895Z,14.90
2023-05-13T07:34:29.659Z,15.00
2023-05-13T07:39:31.477Z,15.20
2023-05-13T07:44:33.532Z,15.30
2023-05-13T07:49:35.352Z,15.50
2023-05-13T07:54:37.250Z,15.70
2023-05-13T07:59:39.069Z,15.80
2023-05-13T08:04:40.929Z,16.00
2023-05-13T08:09:42.784Z,16.30
2023-05-13T08:14:45.407Z,16.20
2023-05-13T08:19:48.314Z,16.50
2023-05-13T08:24:50.098Z,16.60
2023-05-13T08:29:51.905Z,16.70
2023-05-13T08:34:54.348Z,16.90
2023-05-13T08:39:56.607Z,17.20
2023-05-13T08:44:58.763Z,17.30
2023-05-13T08:50:01.010Z,17.40
2023-05-13T08:55:04.086Z,17.50
2023-05-13T09:00:06.512Z,17.60
2023-05-13T09:05:09.997Z,17.90
2023-05-13T09:10:11.961Z,18.00
2023-05-13T09:15:16.891Z,18.20
2023-05-13T09:20:20.649Z,18.60
2023-05-13T09:25:26.049Z,18.50
2023-05-13T09:30:30.192Z,18.70
2023-05-13T09:35:32.868Z,18.90
2023-05-13T09:40:34.669Z,19.00
2023-05-13T09:45:36.546Z,19.00
2023-05-13T09:50:49.300Z,19.20
2023-05-13T09:56:01.954Z,19.40
2023-05-13T10:01:04.842Z,19.70
2023-05-13T10:06:06.784Z,19.90
2023-05-13T10:11:08.943Z,20.00
2023-05-13T10:16:11.846Z,20.00
2023-05-13T10:21:14.360Z,20.30
2023-05-13T10:26:16.501Z,20.50
2023-05-13T10:31:18.513Z,20.40
2023-05-13T10:36:53.266Z,20.40
2023-05-13T10:42:22.827Z,20.90
2023-05-13T10:47:24.873Z,21.00
2023-05-13T10:52:43.297Z,21.20
2023-05-13T10:58:03.889Z,21.20
2023-05-13T11:03:30.059Z,21.20
2023-05-13T11:08:44.276Z,21.60
2023-05-13T11:13:46.353Z,21.50
2023-05-13T11:18:49.244Z,21.60
2023-05-13T11:23:58.369Z,21.40
2023-05-13T11:29:03.602Z,21.70
2023-05-13T11:34:09.797Z,22.00
2023-05-13T11:39:17.050Z,22.50
2023-05-13T11:44:20.692Z,22.70
2023-05-13T11:49:32.937Z,22.70
2023-05-13T11:54:53.439Z,23.00
2023-05-13T11:59:59.497Z,23.10
2023-05-13T12:05:04.454Z,23.20
2023-05-13T12:10:07.305Z,23.40
2023-05-13T12:15:15.981Z,23.40
2023-05-13T12:20:22.797Z,23.70
2023-05-13T12:25:40.877Z,23.50
2023-05-13T12:30:54.283Z,24.10
2023-05-13T12:36:21.628Z,23.70
2023-05-13T12:41:26.009Z,22.80
2023-05-13T12:46:28.630Z,22.30
2023-05-13T12:51:31.364Z,23.40
2023-05-13T12:56:33.124Z,23.70
2023-05-13T13:01:35.741Z,24.20
2023-05-13T13:06:37.602Z,24.30
2023-05-13T13:11:39.397Z,23.70
2023-05-13T13:16:41.290Z,23.10
2023-05-13T13:21:43.102Z,22.90
2023-05-13T13:26:44.958Z,24.10
2023-05-13T13:31:47.005Z,24.70
2023-05-13T13:36:48.904Z,25.20
2023-05-13T13:41:53.074Z,25.50
2023-05-13T13:46:55.024Z,24.60
2023-05-13T13:51:56.787Z,23.20
2023-05-13T13:56:59.055Z,24.30
2023-05-13T14:02:00.865Z,25.10
2023-05-13T14:07:02.860Z,25.30
2023-05-13T14:12:04.967Z,25.90
2023-05-13T14:17:06.864Z,26.40
2023-05-13T14:22:08.673Z,26.50
2023-05-13T14:27:10.614Z,26.80
2023-05-13T14:32:12.373Z,26.40
2023-05-13T14:37:14.508Z,25.00
2023-05-13T14:42:16.268Z,25.70
2023-05-13T14:47:18.082Z,26.60
2023-05-13T14:52:19.840Z,27.20
2023-05-13T14:57:21.760Z,25.30
2023-05-13T15:02:23.599Z,24.60
2023-05-13T15:07:25.951Z,26.10
2023-05-13T15:12:27.743Z,27.10
2023-05-13T15:17:30.089Z,27.40
2023-05-13T15:22:33.900Z,25.50
2023-05-13T15:27:36.260Z,25.50
2023-05-13T15:32:38.010Z,26.70
2023-05-13T15:37:42.679Z,26.20
2023-05-13T15:42:44.681Z,25.70
2023-05-13T15:47:46.550Z,26.10
2023-05-13T15:52:48.638Z,24.60
2023-05-13T15:57:50.778Z,26.30
2023-05-13T16:02:52.688Z,27.30
2023-05-13T16:07:56.092Z,27.90
2023-05-13T16:12:57.859Z,28.10
2023-05-13T16:17:59.730Z,26.30
2023-05-13T16:23:01.638Z,25.50
2023-05-13T16:28:03.767Z,25.20
2023-05-13T16:33:05.723Z,25.60
2023-05-13T16:38:07.644Z,26.80
2023-05-13T16:43:09.666Z,27.00
2023-05-13T16:48:11.667Z,26.00
2023-05-13T16:53:13.658Z,26.10
2023-05-13T16:58:16.331Z,26.10
2023-05-13T17:03:18.182Z,24.80
2023-05-13T17:08:21.389Z,23.90
2023-05-13T17:13:23.642Z,23.30
2023-05-13T17:18:26.470Z,22.70
2023-05-13T17:23:28.331Z,22.60
2023-05-13T17:28:30.281Z,23.80
2023-05-13T17:33:32.240Z,23.60
2023-05-13T17:38:34.163Z,22.70
2023-05-13T17:43:36.636Z,22.10
2023-05-13T17:48:38.532Z,21.90
2023-05-13T17:53:40.597Z,21.60
2023-05-13T17:58:42.519Z,21.50
2023-05-13T18:03:44.277Z,21.50
2023-05-13T18:08:46.267Z,21.60
2023-05-13T18:13:48.088Z,21.50
2023-05-13T18:18:49.937Z,21.30
2023-05-13T18:23:51.811Z,21.20
2023-05-13T18:28:53.707Z,21.20
2023-05-13T18:33:55.632Z,20.90
2023-05-13T18:38:57.423Z,21.10
2023-05-13T18:43:59.200Z,20.80
2023-05-13T18:49:01.297Z,20.50
2023-05-13T18:54:04.493Z,20.40
2023-05-13T18:59:06.446Z,20.70
2023-05-13T19:04:08.346Z,20.50
2023-05-13T19:09:10.522Z,20.40
2023-05-13T19:14:12.347Z,20.10
2023-05-13T19:19:14.206Z,20.10
2023-05-13T19:24:16.442Z,19.80
2023-05-13T19:29:18.307Z,19.60
2023-05-13T19:34:20.342Z,19.50
2023-05-13T19:39:22.280Z,19.30
2023-05-13T19:44:27.670Z,19.30
2023-05-13T19:49:29.709Z,19.10
2023-05-13T19:54:31.500Z,19.30
2023-05-13T19:59:33.559Z,19.20
2023-05-13T20:04:35.579Z,19.30
2023-05-13T20:09:37.427Z,19.20
2023-05-13T20:14:58.644Z,18.90
2023-05-13T20:20:01.704Z,18.80
2023-05-13T20:25:03.492Z,18.80
2023-05-13T20:30:05.782Z,18.60
2023-05-13T20:35:08.745Z,18.30
2023-05-13T20:40:10.838Z,18.30
2023-05-13T20:45:12.904Z,18.20
2023-05-13T20:50:14.684Z,17.90
2023-05-13T20:55:17.211Z,17.70
2023-05-13T21:00:19.304Z,17.60
2023-05-13T21:05:21.313Z,17.40
2023-05-13T21:10:23.681Z,17.30
2023-05-13T21:15:25.926Z,16.90
2023-05-13T21:20:27.729Z,16.90
2023-05-13T21:25:29.484Z,17.00
2023-05-13T21:30:34.099Z,16.90
2023-05-13T21:35:36.026Z,16.80
2023-05-13T21:40:38.419Z,16.70
2023-05-13T21:45:40.496Z,16.50
2023-05-13T21:50:42.332Z,16.40
2023-05-13T21:55:44.453Z,16.30
2023-05-13T22:00:46.299Z,16.20
2023-05-13T22:05:48.133Z,16.10
2023-05-13T22:10:50.002Z,16.00
2023-05-13T22:15:51.877Z,15.80
2023-05-13T22:20:53.643Z,15.80
2023-05-13T22:25:55.635Z,15.80
2023-05-13T22:30:57.555Z,15.70
2023-05-13T22:35:59.404Z,15.70
2023-05-13T22:41:01.172Z,15.50
2023-05-13T22:46:03.085Z,15.50
2023-05-13T22:51:04.908Z,15.40
2023-05-13T22:56:07.504Z,15.30
2023-05-13T23:01:09.345Z,15.50
2023-05-13T23:06:11.257Z,15.30
2023-05-13T23:11:12.994Z,15.20
2023-05-13T23:16:14.975Z,15.20
2023-05-13T23:21:16.745Z,15.30
2023-05-13T23:26:18.586Z,15.20
2023-05-13T23:31:20.468Z,15.30
2023-05-13T23:36:23.867Z,15.30
2023-05-13T23:41:25.620Z,15.30
2023-05-13T23:46:27.413Z,15.20
2023-05-13T23:51:29.245Z,15.20
2023-05-13T23:56:31.040Z,15.20
